createdAt,value
2022-10-06T00:01:04.994Z,2.10
2022-10-06T00:03:31.744Z,2.53
2022-10-06T00:06:00.887Z,2.38
2022-10-06T00:08:27.849Z,2.75
2022-10-06T00:10:56.230Z,2.10
2022-10-06T00:13:23.965Z,2.53
2022-10-06T00:15:50.695Z,2.50
2022-10-06T00:18:17.336Z,2.20
2022-10-06T00:20:44.115Z,2.25
2022-10-06T00:23:10.809Z,2.33
2022-10-06T00:25:37.438Z,2.45
2022-10-06T00:28:04.076Z,2.65
2022-10-06T00:30:31.228Z,2.55
2022-10-06T00:33:00.692Z,2.53
2022-10-06T00:35:31.049Z,2.20
2022-10-06T00:37:57.793Z,1.90
2022-10-06T00:40:24.438Z,2.30
2022-10-06T00:42:53.568Z,2.25
2022-10-06T00:45:37.720Z,2.35
2022-10-06T00:48:11.488Z,2.00
2022-10-06T00:50:38.085Z,2.22
2022-10-06T00:53:04.737Z,2.63
2022-10-06T00:55:31.457Z,1.98
2022-10-06T00:57:58.766Z,2.13
2022-10-06T01:00:25.330Z,2.03
2022-10-06T01:02:57.237Z,2.20
2022-10-06T01:05:33.961Z,2.20
2022-10-06T01:08:00.586Z,1.95
2022-10-06T01:10:27.210Z,1.98
2022-10-06T01:12:53.867Z,1.98
2022-10-06T01:15:21.440Z,2.45
2022-10-06T01:18:06.198Z,2.58
2022-10-06T01:20:32.805Z,2.13
2022-10-06T01:23:01.993Z,2.00
2022-10-06T01:25:28.575Z,1.75
2022-10-06T01:27:55.297Z,2.28
2022-10-06T01:30:27.493Z,2.38
2022-10-06T01:32:54.090Z,1.90
2022-10-06T01:35:20.680Z,1.88
2022-10-06T01:37:47.269Z,1.95
2022-10-06T01:40:13.967Z,1.63
2022-10-06T01:42:40.585Z,1.65
2022-10-06T01:45:07.646Z,2.40
2022-10-06T01:47:34.520Z,1.73
2022-10-06T01:50:01.134Z,1.80
2022-10-06T01:52:27.775Z,1.63
2022-10-06T01:54:54.622Z,1.65
2022-10-06T01:57:21.353Z,1.98
2022-10-06T01:59:52.634Z,2.15
2022-10-06T02:02:21.186Z,2.42
2022-10-06T02:04:47.797Z,1.95
2022-10-06T02:07:14.433Z,2.00
2022-10-06T02:09:41.126Z,2.03
2022-10-06T02:12:07.760Z,1.88
2022-10-06T02:14:34.688Z,2.70
2022-10-06T02:17:01.357Z,1.65
2022-10-06T02:19:27.987Z,2.08
2022-10-06T02:21:54.682Z,1.70
2022-10-06T02:24:21.320Z,2.20
2022-10-06T02:26:47.952Z,2.20
2022-10-06T02:29:14.615Z,2.72
2022-10-06T02:31:41.234Z,2.45
2022-10-06T02:34:07.838Z,1.90
2022-10-06T02:36:34.393Z,2.25
2022-10-06T02:39:00.968Z,1.98
2022-10-06T02:41:27.576Z,2.20
2022-10-06T02:43:55.243Z,2.25
2022-10-06T02:46:22.256Z,2.00
2022-10-06T02:48:48.935Z,1.98
2022-10-06T02:51:17.023Z,1.92
2022-10-06T02:53:44.312Z,2.15
2022-10-06T02:56:16.029Z,2.33
2022-10-06T02:58:43.079Z,2.17
2022-10-06T03:01:11.498Z,2.22
2022-10-06T03:03:38.284Z,2.10
2022-10-06T03:06:21.604Z,2.40
2022-10-06T03:08:58.492Z,2.67
2022-10-06T03:11:26.848Z,2.17
2022-10-06T03:13:53.529Z,1.92
2022-10-06T03:16:22.191Z,2.92
2022-10-06T03:18:49.967Z,2.83
2022-10-06T03:21:17.545Z,4.60
2022-10-06T03:23:44.348Z,6.47
2022-10-06T03:26:11.551Z,7.55
2022-10-06T03:28:40.005Z,5.22
2022-10-06T03:31:06.867Z,4.95
2022-10-06T03:33:34.608Z,3.65
2022-10-06T03:36:03.709Z,3.40
2022-10-06T03:38:32.178Z,3.60
2022-10-06T03:41:06.288Z,4.45
2022-10-06T03:43:33.395Z,6.28
2022-10-06T03:46:01.031Z,5.35
2022-10-06T03:48:28.988Z,5.35
2022-10-06T03:50:57.936Z,4.95
2022-10-06T03:53:27.803Z,3.92
2022-10-06T03:56:16.390Z,4.65
2022-10-06T03:58:45.281Z,3.60
2022-10-06T04:01:19.134Z,3.10
2022-10-06T04:03:47.812Z,3.47
2022-10-06T04:06:17.348Z,3.75
2022-10-06T04:08:45.130Z,3.00
2022-10-06T04:11:15.142Z,3.33
2022-10-06T04:13:42.540Z,4.50
2022-10-06T04:16:11.041Z,4.43
2022-10-06T04:18:38.135Z,4.20
2022-10-06T04:21:05.063Z,4.60
2022-10-06T04:23:32.066Z,3.53
2022-10-06T04:25:59.856Z,4.00
2022-10-06T04:28:26.811Z,2.78
2022-10-06T04:30:58.804Z,2.60
2022-10-06T04:33:25.444Z,2.92
2022-10-06T04:36:00.505Z,2.20
2022-10-06T04:38:28.799Z,2.20
2022-10-06T04:40:57.475Z,2.28
2022-10-06T04:43:24.975Z,2.30
2022-10-06T04:45:59.460Z,2.40
2022-10-06T04:48:27.842Z,3.17
2022-10-06T04:50:59.301Z,2.80
2022-10-06T04:53:26.074Z,3.03
2022-10-06T04:56:05.708Z,2.85
2022-10-06T04:58:34.697Z,2.55
2022-10-06T05:01:01.498Z,2.90
2022-10-06T05:03:29.001Z,3.00
2022-10-06T05:06:13.068Z,2.33
2022-10-06T05:08:39.965Z,2.00
2022-10-06T05:11:08.691Z,2.20
2022-10-06T05:13:37.119Z,2.33
2022-10-06T05:16:05.270Z,2.38
2022-10-06T05:18:32.249Z,2.50
2022-10-06T05:21:05.776Z,2.80
2022-10-06T05:23:34.777Z,2.72
2022-10-06T05:26:01.591Z,3.60
2022-10-06T05:28:29.883Z,2.47
2022-10-06T05:31:00.710Z,2.20
2022-10-06T05:33:28.619Z,3.40
2022-10-06T05:35:56.807Z,4.95
2022-10-06T05:38:23.538Z,3.92
2022-10-06T05:40:50.289Z,2.83
2022-10-06T05:43:17.366Z,2.72
2022-10-06T05:46:00.351Z,3.08
2022-10-06T05:51:02.985Z,2.63
2022-10-06T05:53:30.122Z,3.40
2022-10-06T05:56:07.904Z,2.60
2022-10-06T05:58:35.475Z,3.55
2022-10-06T06:01:19.231Z,3.10
2022-10-06T06:03:48.874Z,3.00
2022-10-06T06:06:19.076Z,3.15
2022-10-06T06:08:46.006Z,3.08
2022-10-06T06:11:12.794Z,2.50
2022-10-06T06:13:39.383Z,3.38
2022-10-06T06:16:06.778Z,3.08
2022-10-06T06:18:34.303Z,3.55
2022-10-06T06:21:02.266Z,3.45
2022-10-06T06:23:34.457Z,3.65
2022-10-06T06:26:03.860Z,4.13
2022-10-06T06:28:31.204Z,3.17
2022-10-06T06:31:08.219Z,2.70
2022-10-06T06:33:37.647Z,3.28
2022-10-06T06:36:21.173Z,3.40
2022-10-06T06:38:51.944Z,2.55
2022-10-06T06:41:22.640Z,3.35
2022-10-06T06:43:49.736Z,2.35
2022-10-06T06:46:17.528Z,3.08
2022-10-06T06:48:45.356Z,2.53
2022-10-06T06:51:12.089Z,2.33
2022-10-06T06:53:40.189Z,2.10
2022-10-06T06:56:08.290Z,2.60
2022-10-06T06:58:35.627Z,5.25
2022-10-06T07:01:14.082Z,2.50
2022-10-06T07:03:57.092Z,2.50
2022-10-06T07:06:28.138Z,2.58
2022-10-06T07:08:55.926Z,2.67
2022-10-06T07:11:24.615Z,2.90
2022-10-06T07:13:53.301Z,2.30
2022-10-06T07:16:40.311Z,3.10
2022-10-06T07:19:27.265Z,2.10
2022-10-06T07:22:16.130Z,2.15
2022-10-06T07:25:03.219Z,2.53
2022-10-06T07:27:30.226Z,2.10
2022-10-06T07:29:57.410Z,2.75
2022-10-06T07:32:25.362Z,2.78
2022-10-06T07:34:52.542Z,1.92
2022-10-06T07:37:19.557Z,4.82
2022-10-06T07:39:49.515Z,2.05
2022-10-06T07:42:17.571Z,2.63
2022-10-06T07:45:04.889Z,2.28
2022-10-06T07:47:32.508Z,2.05
2022-10-06T07:49:59.263Z,4.00
2022-10-06T07:52:28.747Z,2.15
2022-10-06T07:54:56.443Z,2.22
2022-10-06T07:57:23.403Z,3.55
2022-10-06T07:59:50.564Z,2.45
2022-10-06T08:02:19.192Z,2.58
2022-10-06T08:04:45.983Z,1.75
2022-10-06T08:07:12.706Z,2.47
2022-10-06T08:09:39.539Z,2.90
2022-10-06T08:12:26.145Z,2.42
2022-10-06T08:14:53.101Z,2.38
2022-10-06T08:17:19.998Z,2.70
2022-10-06T08:19:47.894Z,3.08
2022-10-06T08:22:15.874Z,2.47
2022-10-06T08:25:04.292Z,2.45
2022-10-06T08:27:29.153Z,2.72
2022-10-06T08:29:56.143Z,3.10
2022-10-06T08:32:23.277Z,3.95
2022-10-06T08:34:49.969Z,3.08
2022-10-06T08:37:20.131Z,2.58
2022-10-06T08:39:47.001Z,1.83
2022-10-06T08:42:18.463Z,2.80
2022-10-06T08:44:47.518Z,2.67
2022-10-06T08:47:19.858Z,2.28
2022-10-06T08:49:47.560Z,2.38
2022-10-06T08:52:36.522Z,2.53
2022-10-06T08:55:14.039Z,3.22
2022-10-06T08:58:18.490Z,2.00
2022-10-06T09:00:45.133Z,2.78
2022-10-06T09:03:23.891Z,2.50
2022-10-06T09:05:54.687Z,10.48
2022-10-06T09:08:44.758Z,2.45
2022-10-06T09:11:53.585Z,2.13
2022-10-06T09:14:24.368Z,2.00
2022-10-06T09:16:54.124Z,2.75
2022-10-06T09:19:40.762Z,2.40
2022-10-06T09:22:15.560Z,2.28
2022-10-06T09:24:47.240Z,2.20
2022-10-06T09:27:19.010Z,2.35
2022-10-06T09:29:48.539Z,2.05
2022-10-06T09:32:16.778Z,2.22
2022-10-06T09:34:55.893Z,2.05
2022-10-06T09:37:22.828Z,2.20
2022-10-06T09:39:50.854Z,2.33
2022-10-06T09:42:24.579Z,2.67
2022-10-06T09:47:39.603Z,2.47
2022-10-06T09:53:04.263Z,2.47
2022-10-06T09:58:23.036Z,2.80
2022-10-06T10:01:09.985Z,2.05
2022-10-06T10:04:19.422Z,3.30
2022-10-06T10:06:47.430Z,2.92
2022-10-06T10:12:22.714Z,3.60
2022-10-06T10:14:49.321Z,2.85
2022-10-06T10:17:20.003Z,2.17
2022-10-06T10:19:53.007Z,4.30
2022-10-06T10:22:24.508Z,3.85
2022-10-06T10:25:18.337Z,2.40
2022-10-06T10:30:47.524Z,3.05
2022-10-06T10:33:18.118Z,3.55
2022-10-06T10:35:46.432Z,2.83
2022-10-06T10:38:21.166Z,2.85
2022-10-06T10:40:51.862Z,3.08
2022-10-06T10:43:29.665Z,2.90
2022-10-06T10:46:01.023Z,2.70
2022-10-06T10:48:38.532Z,4.82
2022-10-06T10:51:07.850Z,2.67
2022-10-06T10:53:52.595Z,3.00
2022-10-06T10:56:21.409Z,2.70
2022-10-06T10:58:49.319Z,3.00
2022-10-06T11:01:37.656Z,2.95
2022-10-06T11:04:04.274Z,3.10
2022-10-06T11:07:14.004Z,2.88
2022-10-06T11:10:06.177Z,2.63
2022-10-06T11:15:59.993Z,3.17
2022-10-06T11:18:57.386Z,5.38
2022-10-06T11:21:27.991Z,5.75
2022-10-06T11:26:48.181Z,5.03
2022-10-06T11:34:51.045Z,6.53
2022-10-06T11:37:39.915Z,6.00
2022-10-06T11:40:31.623Z,7.15
2022-10-06T11:43:06.083Z,5.38
2022-10-06T11:45:55.279Z,5.82
2022-10-06T11:48:30.181Z,3.97
2022-10-06T11:51:17.693Z,5.05
2022-10-06T11:53:44.931Z,4.57
2022-10-06T11:58:59.986Z,5.07
2022-10-06T12:04:13.689Z,3.50
2022-10-06T12:12:27.024Z,4.63
2022-10-06T12:17:55.145Z,3.53
2022-10-06T12:25:59.495Z,3.58
2022-10-06T12:28:44.561Z,3.60
2022-10-06T12:31:41.091Z,3.83
2022-10-06T12:34:47.638Z,4.57
2022-10-06T12:37:35.889Z,5.07
2022-10-06T12:40:44.087Z,5.10
2022-10-06T12:46:29.516Z,5.50
2022-10-06T12:49:22.069Z,5.60
2022-10-06T12:51:50.659Z,4.25
2022-10-06T12:54:25.140Z,4.78
2022-10-06T12:56:58.854Z,4.88
2022-10-06T12:59:35.135Z,3.05
2022-10-06T13:02:04.199Z,3.65
2022-10-06T13:07:33.027Z,3.25
2022-10-06T13:10:19.380Z,3.85
2022-10-06T13:12:47.180Z,3.33
2022-10-06T13:15:23.809Z,6.28
2022-10-06T13:18:12.159Z,3.47
2022-10-06T13:20:41.752Z,3.65
2022-10-06T13:23:18.376Z,4.10
2022-10-06T13:25:47.807Z,3.70
2022-10-06T13:28:50.274Z,4.28
2022-10-06T13:31:22.297Z,3.25
2022-10-06T13:34:06.740Z,3.50
2022-10-06T13:36:35.449Z,3.00
2022-10-06T13:39:05.964Z,4.30
2022-10-06T13:41:37.032Z,3.00
2022-10-06T13:44:14.254Z,3.70
2022-10-06T13:46:44.269Z,5.80
2022-10-06T13:49:17.083Z,4.20
2022-10-06T13:51:47.826Z,4.50
2022-10-06T13:54:41.293Z,5.25
2022-10-06T13:57:43.612Z,3.63
2022-10-06T14:00:30.591Z,3.58
2022-10-06T14:03:09.058Z,3.85
2022-10-06T14:05:41.065Z,4.00
2022-10-06T14:10:51.142Z,5.28
2022-10-06T14:13:39.717Z,5.22
2022-10-06T14:16:07.796Z,4.68
2022-10-06T14:18:40.022Z,5.03
2022-10-06T14:21:30.101Z,6.53
2022-10-06T14:23:56.845Z,4.60
2022-10-06T14:26:27.830Z,5.63
2022-10-06T14:28:54.924Z,5.55
2022-10-06T14:31:22.346Z,5.65
2022-10-06T14:33:52.167Z,4.90
2022-10-06T14:36:21.044Z,4.47
2022-10-06T14:38:48.680Z,4.20
2022-10-06T14:41:18.996Z,5.03
2022-10-06T14:43:47.641Z,3.75
2022-10-06T14:46:15.606Z,4.90
2022-10-06T14:48:42.392Z,4.57
2022-10-06T14:51:09.437Z,5.43
2022-10-06T14:53:39.311Z,4.93
2022-10-06T14:56:08.813Z,4.40
2022-10-06T14:58:38.791Z,5.60
2022-10-06T15:01:07.324Z,5.50
2022-10-06T15:03:35.454Z,4.97
2022-10-06T15:06:23.616Z,5.85
2022-10-06T15:08:51.798Z,5.78
2022-10-06T15:11:19.971Z,5.72
2022-10-06T15:13:46.992Z,5.47
2022-10-06T15:16:15.439Z,4.82
2022-10-06T15:18:42.887Z,4.22
2022-10-06T15:21:10.306Z,4.47
2022-10-06T15:23:37.771Z,5.65
2022-10-06T15:26:24.831Z,5.78
2022-10-06T15:29:06.896Z,5.43
2022-10-06T15:31:36.307Z,5.97
2022-10-06T15:34:04.078Z,6.75
2022-10-06T15:36:33.397Z,5.65
2022-10-06T15:39:03.266Z,5.82
2022-10-06T15:41:29.957Z,5.40
2022-10-06T15:43:57.301Z,5.88
2022-10-06T15:46:46.095Z,5.47
2022-10-06T15:49:15.152Z,4.93
2022-10-06T15:51:48.116Z,6.45
2022-10-06T15:54:19.329Z,6.35
2022-10-06T15:56:47.790Z,5.05
2022-10-06T15:59:15.207Z,5.13
2022-10-06T16:01:44.042Z,5.93
2022-10-06T16:04:20.094Z,5.43
2022-10-06T16:06:50.818Z,7.57
2022-10-06T16:09:18.751Z,5.90
2022-10-06T16:11:47.038Z,5.80
2022-10-06T16:14:14.270Z,5.50
2022-10-06T16:16:43.682Z,6.18
2022-10-06T16:19:10.690Z,5.25
2022-10-06T16:21:37.468Z,4.60
2022-10-06T16:24:04.148Z,4.57
2022-10-06T16:26:31.051Z,5.20
2022-10-06T16:28:57.704Z,6.28
2022-10-06T16:31:24.456Z,3.95
2022-10-06T16:33:51.170Z,3.85
2022-10-06T16:36:17.911Z,5.93
2022-10-06T16:38:44.720Z,4.82
2022-10-06T16:41:11.510Z,4.43
2022-10-06T16:43:41.858Z,4.47
2022-10-06T16:46:10.288Z,4.13
2022-10-06T16:48:38.630Z,4.82
2022-10-06T16:51:12.298Z,6.50
2022-10-06T16:53:41.958Z,5.57
2022-10-06T16:56:10.790Z,7.20
2022-10-06T16:58:38.776Z,5.15
2022-10-06T17:01:05.922Z,5.15
2022-10-06T17:03:32.674Z,4.47
2022-10-06T17:06:09.856Z,4.78
2022-10-06T17:08:37.116Z,3.55
2022-10-06T17:11:06.805Z,4.43
2022-10-06T17:13:34.369Z,4.63
2022-10-06T17:16:02.718Z,5.25
2022-10-06T17:18:29.401Z,5.90
2022-10-06T17:20:57.171Z,5.72
2022-10-06T17:23:24.365Z,4.88
2022-10-06T17:26:15.266Z,5.85
2022-10-06T17:28:42.381Z,5.05
2022-10-06T17:31:09.167Z,5.57
2022-10-06T17:33:38.265Z,5.47
2022-10-06T17:36:13.799Z,5.60
2022-10-06T17:38:42.411Z,5.40
2022-10-06T17:41:11.731Z,6.00
2022-10-06T17:43:39.706Z,6.07
2022-10-06T17:46:11.129Z,6.15
2022-10-06T17:48:37.838Z,7.38
2022-10-06T17:51:04.541Z,5.63
2022-10-06T17:53:31.215Z,6.50
2022-10-06T17:55:57.890Z,6.00
2022-10-06T17:58:24.541Z,5.88
2022-10-06T18:00:51.237Z,8.05
2022-10-06T18:03:19.154Z,8.10
2022-10-06T18:05:53.606Z,8.20
2022-10-06T18:08:23.233Z,9.18
2022-10-06T18:11:09.829Z,7.22
2022-10-06T18:13:36.501Z,8.25
2022-10-06T18:16:03.228Z,7.93
2022-10-06T18:18:31.096Z,8.07
2022-10-06T18:21:02.044Z,7.97
2022-10-06T18:23:31.111Z,9.27
2022-10-06T18:26:00.162Z,10.80
2022-10-06T18:28:28.765Z,10.73
2022-10-06T18:30:55.423Z,9.48
2022-10-06T18:36:14.282Z,9.73
2022-10-06T18:38:44.201Z,8.10
2022-10-06T18:41:14.263Z,10.30
2022-10-06T18:43:41.342Z,8.27
2022-10-06T18:46:28.122Z,8.25
2022-10-06T18:48:54.918Z,8.13
2022-10-06T18:51:24.701Z,8.95
2022-10-06T18:53:53.268Z,9.05
2022-10-06T18:56:20.505Z,8.40
2022-10-06T18:58:47.148Z,8.05
2022-10-06T19:01:14.273Z,8.65
2022-10-06T19:03:40.987Z,9.68
2022-10-06T19:06:07.660Z,8.70
2022-10-06T19:08:34.310Z,8.15
2022-10-06T19:11:23.964Z,8.95
2022-10-06T19:13:52.124Z,7.70
2022-10-06T19:16:19.801Z,9.40
2022-10-06T19:18:46.503Z,9.13
2022-10-06T19:21:13.604Z,8.88
2022-10-06T19:23:40.346Z,10.15
2022-10-06T19:26:08.720Z,9.05
2022-10-06T19:28:35.651Z,8.20
2022-10-06T19:31:06.826Z,8.38
2022-10-06T19:33:33.628Z,8.68
2022-10-06T19:36:00.419Z,9.70
2022-10-06T19:38:27.398Z,9.25
2022-10-06T19:40:54.011Z,8.57
2022-10-06T19:43:20.635Z,9.65
2022-10-06T19:46:02.283Z,8.80
2022-10-06T19:48:29.025Z,9.50
2022-10-06T19:50:55.634Z,8.25
2022-10-06T19:53:22.249Z,8.30
2022-10-06T19:55:49.974Z,9.23
2022-10-06T19:58:16.564Z,8.90
2022-10-06T20:00:43.481Z,9.30
2022-10-06T20:03:10.072Z,9.27
2022-10-06T20:05:38.244Z,8.95
2022-10-06T20:08:04.982Z,8.52
2022-10-06T20:10:32.749Z,9.52
2022-10-06T20:12:59.351Z,8.70
2022-10-06T20:15:25.903Z,10.38
2022-10-06T20:17:52.477Z,8.85
2022-10-06T20:20:20.300Z,10.15
2022-10-06T20:22:47.243Z,9.13
2022-10-06T20:25:13.857Z,9.48
2022-10-06T20:27:40.630Z,9.38
2022-10-06T20:30:07.949Z,10.77
2022-10-06T20:32:34.738Z,9.57
2022-10-06T20:35:01.837Z,9.00
2022-10-06T20:37:28.469Z,9.38
2022-10-06T20:40:15.065Z,10.10
2022-10-06T20:42:44.722Z,10.50
2022-10-06T20:45:11.326Z,10.80
2022-10-06T20:47:37.904Z,9.82
2022-10-06T20:50:04.952Z,9.65
2022-10-06T20:52:31.578Z,8.40
2022-10-06T20:54:58.175Z,9.98
2022-10-06T20:57:28.115Z,9.05
2022-10-06T20:59:57.015Z,10.02
2022-10-06T21:02:23.596Z,8.82
2022-10-06T21:04:50.204Z,9.25
2022-10-06T21:07:18.400Z,10.00
2022-10-06T21:09:48.631Z,9.75
2022-10-06T21:12:18.717Z,9.45
2022-10-06T21:14:47.392Z,9.45
2022-10-06T21:17:14.126Z,9.07
2022-10-06T21:19:40.724Z,9.43
2022-10-06T21:22:07.341Z,13.27
2022-10-06T21:24:34.011Z,10.63
2022-10-06T21:27:00.587Z,9.50
2022-10-06T21:29:27.275Z,8.95
2022-10-06T21:31:54.137Z,8.85
2022-10-06T21:34:20.712Z,9.48
2022-10-06T21:36:47.356Z,10.43
2022-10-06T21:39:13.997Z,8.73
2022-10-06T21:41:40.669Z,8.43
2022-10-06T21:44:08.670Z,7.82
2022-10-06T21:46:36.935Z,8.63
2022-10-06T21:49:05.470Z,10.25
2022-10-06T21:51:32.547Z,10.07
2022-10-06T21:53:59.461Z,9.88
2022-10-06T21:56:27.178Z,10.60
2022-10-06T21:58:55.583Z,8.98
2022-10-06T22:01:24.155Z,8.25
2022-10-06T22:03:50.952Z,8.82
2022-10-06T22:06:19.514Z,8.35
2022-10-06T22:08:46.503Z,7.53
2022-10-06T22:11:16.119Z,7.25
2022-10-06T22:13:44.356Z,8.52
2022-10-06T22:16:12.480Z,8.38
2022-10-06T22:18:39.523Z,8.60
2022-10-06T22:21:12.423Z,7.88
2022-10-06T22:23:41.120Z,7.53
2022-10-06T22:26:08.126Z,6.70
2022-10-06T22:28:34.900Z,7.78
2022-10-06T22:31:06.210Z,6.97
2022-10-06T22:33:33.130Z,7.65
2022-10-06T22:35:59.835Z,8.00
2022-10-06T22:38:26.446Z,6.35
2022-10-06T22:40:53.294Z,6.57
2022-10-06T22:43:19.922Z,6.03
2022-10-06T22:45:46.543Z,7.72
2022-10-06T22:48:13.122Z,7.15
2022-10-06T22:50:39.776Z,6.03
2022-10-06T22:53:06.358Z,6.43
2022-10-06T22:55:32.929Z,5.97
2022-10-06T22:57:59.486Z,6.82
2022-10-06T23:00:27.597Z,6.22
2022-10-06T23:02:54.741Z,5.10
2022-10-06T23:05:21.521Z,5.35
2022-10-06T23:07:48.184Z,6.18
2022-10-06T23:10:14.931Z,6.45
2022-10-06T23:12:41.537Z,5.80
2022-10-06T23:15:11.287Z,5.57
2022-10-06T23:17:38.108Z,6.90
2022-10-06T23:20:04.954Z,5.50
2022-10-06T23:22:31.531Z,5.75
2022-10-06T23:24:58.136Z,6.22
2022-10-06T23:27:25.071Z,5.75
2022-10-06T23:29:51.735Z,5.70
2022-10-06T23:32:18.302Z,6.10
2022-10-06T23:34:45.023Z,5.05
2022-10-06T23:37:11.574Z,5.43
2022-10-06T23:39:38.171Z,5.30
2022-10-06T23:42:04.893Z,5.35
2022-10-06T23:44:31.498Z,5.57
2022-10-06T23:46:58.443Z,5.53
2022-10-06T23:49:25.088Z,5.65
2022-10-06T23:51:51.647Z,6.32
2022-10-06T23:54:18.281Z,5.07
2022-10-06T23:56:44.909Z,5.05
2022-10-06T23:59:11.475Z,6.22
